Terminal Aerodrome Forecast
Issued by NWS

Home | Current Version | Previous Version | Graphics & Text | Print | Product List | Glossary On
Versions: 1 2 3 4 5 6 7 8 9 10 11 12 13 14 15 16 17 18 19 20 21 22 23 24 25
000
FTUS43 KOAX 232109 AAA
TAFCDR
TAF AMD
KCDR 232109Z 2321/2418 09010KT 6SM -RA BR OVC035
      TEMPO 2321/2401 2SM RA BR OVC010
     FM240200 10008KT 4SM -RA BR SCT003 OVC007
     FM240700 05010KT 2SM -RA BR OVC003
     FM241500 08008KT P6SM OVC015=

USA.gov is the U.S. government's official web portal to all federal, state and local government web resources and services.